Time;durP1;ratioP1;P1;durP2;ratioP2;P2;SDS_P1;SDS_P2;PMS_P1;PMS_P2;Temp;Humidity;BMP_temperature;BMP_pressure;BME280_temperature;BME280_humidity;BME280_pressure;Samples;Min_cycle;Max_cycle;Signal;HPM_P1;HPM_P2
2022/08/14 00:00:24;;;;;;;13.80;11.73;;;20.90;99.00;;;;;;5111311;28;20032;-81
2022/08/14 00:02:50;;;;;;;15.60;12.65;;;20.80;99.00;;;;;;5111052;28;20063;-82
2022/08/14 00:05:18;;;;;;;15.30;12.27;;;20.80;99.10;;;;;;5110051;28;20117;-84
2022/08/14 00:07:45;;;;;;;16.77;13.23;;;20.80;99.10;;;;;;5109718;28;20066;-82
2022/08/14 00:10:14;;;;;;;15.98;12.70;;;20.70;99.20;;;;;;5111504;28;20119;-82
2022/08/14 00:12:44;;;;;;;17.92;12.88;;;20.70;99.20;;;;;;5110824;28;20370;-82
2022/08/14 00:15:14;;;;;;;15.35;13.20;;;20.70;99.20;;;;;;5109933;28;20067;-81
2022/08/14 00:17:39;;;;;;;12.85;10.88;;;20.60;99.20;;;;;;5110156;28;20446;-81
2022/08/14 00:20:07;;;;;;;12.25;10.85;;;20.60;99.20;;;;;;5111394;28;20169;-81
2022/08/14 00:22:33;;;;;;;13.30;11.20;;;20.60;99.30;;;;;;5110820;28;20066;-81
2022/08/14 00:24:59;;;;;;;13.68;12.23;;;20.60;99.30;;;;;;5109743;28;20076;-83
2022/08/14 00:27:24;;;;;;;13.23;11.63;;;20.60;99.30;;;;;;5110446;28;20437;-82
2022/08/14 00:29:50;;;;;;;13.80;11.43;;;20.60;99.30;;;;;;5111350;28;20458;-83
2022/08/14 00:32:15;;;;;;;14.25;11.77;;;20.60;99.30;;;;;;5110778;28;20106;-81
2022/08/14 00:34:41;;;;;;;13.30;11.70;;;20.60;99.30;;;;;;5111031;28;20382;-82
2022/08/14 00:37:06;;;;;;;12.52;11.23;;;20.60;99.30;;;;;;5109155;28;20063;-82
2022/08/14 00:39:32;;;;;;;13.15;11.07;;;20.50;99.30;;;;;;5110765;28;20035;-82
2022/08/14 00:41:57;;;;;;;12.73;10.68;;;20.50;99.30;;;;;;5110400;28;20066;-84
2022/08/14 00:44:23;;;;;;;12.75;11.45;;;20.50;99.40;;;;;;5110839;28;20024;-82
2022/08/14 00:46:49;;;;;;;13.52;11.23;;;20.50;99.40;;;;;;5110290;28;20036;-82
2022/08/14 00:49:14;;;;;;;12.65;10.70;;;20.50;99.50;;;;;;5110859;28;20039;-83
2022/08/14 00:51:42;;;;;;;14.02;11.70;;;20.40;99.50;;;;;;5110714;28;20028;-83
2022/08/14 00:54:08;;;;;;;15.70;11.27;;;20.40;99.50;;;;;;5110992;28;20110;-84
2022/08/14 00:56:35;;;;;;;12.85;11.55;;;20.40;99.60;;;;;;5110186;28;20153;-82
2022/08/14 00:59:01;;;;;;;13.73;11.10;;;20.30;99.70;;;;;;5110841;28;20023;-84
2022/08/14 01:01:28;;;;;;;15.27;10.82;;;20.30;99.90;;;;;;5110573;28;20035;-81
2022/08/14 01:03:56;;;;;;;12.85;10.63;;;20.30;99.80;;;;;;5109399;28;20112;-82
2022/08/14 01:06:22;;;;;;;14.18;11.23;;;20.30;99.80;;;;;;5110510;28;20373;-82
2022/08/14 01:08:49;;;;;;;13.45;10.98;;;20.30;99.90;;;;;;5110842;28;20115;-82
2022/08/14 01:11:14;;;;;;;12.70;11.10;;;20.20;99.90;;;;;;5111021;28;20028;-82
2022/08/14 01:13:43;;;;;;;15.18;11.55;;;20.20;99.90;;;;;;5112520;28;20032;-83
2022/08/14 01:16:12;;;;;;;13.43;11.90;;;20.20;99.90;;;;;;5115952;28;20023;-82
2022/08/14 01:21:38;;;;;;;13.70;11.52;;;20.20;99.90;;;;;;5116043;28;20104;-82
2022/08/14 01:24:09;;;;;;;12.75;10.90;;;20.10;99.90;;;;;;5113867;28;20043;-81
2022/08/14 01:26:34;;;;;;;15.02;11.98;;;20.10;99.90;;;;;;5112524;28;20063;-82
2022/08/14 01:29:00;;;;;;;13.88;11.88;;;20.10;99.90;;;;;;5110891;28;20059;-83
2022/08/14 01:31:29;;;;;;;11.70;10.43;;;20.00;99.90;;;;;;5115561;28;20084;-82
2022/08/14 01:33:58;;;;;;;14.10;10.60;;;20.00;99.90;;;;;;5117414;28;20426;-82
2022/08/14 01:36:26;;;;;;;13.50;12.05;;;20.10;99.90;;;;;;5112928;28;20069;-82
2022/08/14 01:38:56;;;;;;;13.07;11.73;;;20.00;99.90;;;;;;5117511;28;20106;-82
2022/08/14 01:41:23;;;;;;;14.00;11.93;;;20.00;99.90;;;;;;5116403;27;20020;-82
2022/08/14 01:43:59;;;;;;;11.73;10.52;;;20.00;99.90;;;;;;5114010;28;20028;-82
2022/08/14 01:46:27;;;;;;;12.95;10.77;;;19.90;99.90;;;;;;5115782;27;20026;-82
2022/08/14 01:48:52;;;;;;;13.55;12.15;;;20.00;99.90;;;;;;5117822;28;20051;-82
2022/08/14 01:51:21;;;;;;;17.05;12.15;;;20.00;99.90;;;;;;5114923;28;20061;-82
2022/08/14 01:53:49;;;;;;;13.80;12.02;;;19.90;99.90;;;;;;5117031;28;20474;-83
2022/08/14 01:56:19;;;;;;;14.48;11.60;;;19.90;99.90;;;;;;5117874;28;20110;-82
2022/08/14 01:58:49;;;;;;;11.82;10.63;;;19.90;99.90;;;;;;5118064;28;20027;-81
2022/08/14 02:01:16;;;;;;;12.07;10.80;;;19.90;99.90;;;;;;5115943;28;20020;-82
2022/08/14 02:03:43;;;;;;;13.02;11.23;;;19.90;99.90;;;;;;5115934;28;20032;-82
2022/08/14 02:06:10;;;;;;;14.48;11.48;;;19.80;99.90;;;;;;5115947;27;20032;-82
2022/08/14 02:08:37;;;;;;;13.20;11.80;;;19.80;99.90;;;;;;5116999;28;20436;-82
2022/08/14 02:11:17;;;;;;;13.55;11.55;;;19.80;99.90;;;;;;5113790;28;20031;-83
2022/08/14 02:13:45;;;;;;;14.00;12.35;;;19.80;99.90;;;;;;5116845;28;20473;-82
2022/08/14 02:16:11;;;;;;;12.77;11.43;;;19.70;99.90;;;;;;5116569;28;20069;-83
2022/08/14 02:18:38;;;;;;;13.45;12.10;;;19.70;99.90;;;;;;5117675;28;20074;-81
2022/08/14 02:21:05;;;;;;;13.80;11.63;;;19.70;99.90;;;;;;5116102;28;20034;-84
2022/08/14 02:23:31;;;;;;;16.13;12.43;;;19.70;99.90;;;;;;5115945;27;20097;-81
2022/08/14 02:25:59;;;;;;;13.18;11.50;;;19.70;99.90;;;;;;5118415;28;20028;-82
2022/08/14 02:28:30;;;;;;;12.73;11.05;;;19.70;99.90;;;;;;5115179;28;20430;-82
2022/08/14 02:30:57;;;;;;;12.98;11.63;;;19.70;99.90;;;;;;5111898;28;20552;-81
2022/08/14 02:33:23;;;;;;;14.32;12.65;;;19.60;99.90;;;;;;5113623;28;20024;-82
2022/08/14 02:35:49;;;;;;;14.50;12.52;;;19.60;99.90;;;;;;5113591;28;20046;-82
2022/08/14 02:38:15;;;;;;;12.40;11.13;;;19.60;99.90;;;;;;5116233;28;20059;-82
2022/08/14 02:40:40;;;;;;;13.07;11.68;;;19.60;99.90;;;;;;5113279;28;20073;-83
2022/08/14 02:43:06;;;;;;;13.45;12.05;;;19.60;99.90;;;;;;5115421;28;20050;-82
2022/08/14 02:45:33;;;;;;;13.05;11.65;;;19.60;99.90;;;;;;5116591;28;20042;-83
2022/08/14 02:48:05;;;;;;;12.38;11.10;;;19.50;99.90;;;;;;5113549;28;20032;-82
2022/08/14 02:50:31;;;;;;;;;;;19.50;99.90;;;;;;5113783;28;20502;-81
2022/08/14 02:52:56;;;;;;;14.80;11.95;;;19.50;99.90;;;;;;5112868;28;19907;-82
2022/08/14 02:55:22;;;;;;;12.18;10.95;;;19.50;99.90;;;;;;5111516;28;20058;-82
2022/08/14 02:57:51;;;;;;;12.40;11.10;;;19.40;99.90;;;;;;5115227;28;20053;-82
2022/08/14 03:00:17;;;;;;;12.75;11.45;;;19.40;99.90;;;;;;5111448;28;20046;-82
2022/08/14 03:02:43;;;;;;;13.15;10.95;;;19.40;99.90;;;;;;5112005;28;20035;-81
2022/08/14 03:05:11;;;;;;;15.32;12.00;;;19.40;99.90;;;;;;5112642;28;20093;-83
2022/08/14 03:07:37;;;;;;;19.05;11.63;;;19.40;99.90;;;;;;5112206;28;20473;-81
2022/08/14 03:10:03;;;;;;;12.52;11.23;;;19.40;99.90;;;;;;5112522;28;20077;-82
2022/08/14 03:12:28;;;;;;;14.18;11.85;;;19.40;99.90;;;;;;5110912;28;20042;-83
2022/08/14 03:14:54;;;;;;;13.30;11.93;;;19.40;99.90;;;;;;5112332;28;20031;-82
2022/08/14 03:17:19;;;;;;;16.73;10.32;;;19.40;99.90;;;;;;5113296;27;20118;-81
2022/08/14 03:19:45;;;;;;;13.25;11.95;;;19.40;99.90;;;;;;5112552;28;20367;-81
2022/08/14 03:22:10;;;;;;;12.90;11.52;;;19.40;99.90;;;;;;5112493;28;20035;-82
2022/08/14 03:24:35;;;;;;;14.65;12.00;;;19.30;99.90;;;;;;5112100;28;20035;-83
2022/08/14 03:27:02;;;;;;;12.77;11.38;;;19.30;99.90;;;;;;5111610;28;20374;-82
2022/08/14 03:29:28;;;;;;;13.98;12.45;;;19.30;99.90;;;;;;5112126;28;20100;-84
2022/08/14 03:31:54;;;;;;;14.43;11.73;;;19.30;99.90;;;;;;5111545;28;20081;-82
2022/08/14 03:34:22;;;;;;;13.65;12.15;;;19.30;99.90;;;;;;5112094;28;20028;-81
2022/08/14 03:36:50;;;;;;;13.50;10.70;;;19.30;99.90;;;;;;5109785;28;20038;-84
2022/08/14 03:39:17;;;;;;;14.38;10.55;;;19.30;99.90;;;;;;5110352;28;20106;-83
2022/08/14 03:41:43;;;;;;;13.10;11.80;;;19.30;99.90;;;;;;5110869;28;20100;-81
2022/08/14 03:44:08;;;;;;;13.32;11.38;;;19.30;99.90;;;;;;5112136;28;20469;-82
2022/08/14 03:46:37;;;;;;;14.75;12.10;;;19.30;99.90;;;;;;5110784;28;20031;-82
2022/08/14 03:49:04;;;;;;;12.73;11.15;;;19.30;99.90;;;;;;5111803;28;20027;-85
2022/08/14 03:51:31;;;;;;;12.50;11.00;;;19.30;99.90;;;;;;5110140;28;20449;-80
2022/08/14 03:53:59;;;;;;;13.70;11.93;;;19.30;99.90;;;;;;5110695;28;20118;-80
2022/08/14 03:56:26;;;;;;;11.65;10.40;;;19.30;99.90;;;;;;5109656;28;20059;-80
2022/08/14 03:58:55;;;;;;;12.15;10.95;;;19.30;99.90;;;;;;5111743;28;20046;-81
2022/08/14 04:01:23;;;;;;;13.20;11.35;;;19.30;99.90;;;;;;5111641;28;20427;-81
2022/08/14 04:03:51;;;;;;;13.65;11.10;;;19.30;99.90;;;;;;5112849;28;20032;-81
2022/08/14 04:06:19;;;;;;;11.82;10.45;;;19.30;99.90;;;;;;5110806;28;20028;-81
2022/08/14 04:08:45;;;;;;;11.60;10.43;;;19.30;99.90;;;;;;5112520;28;20047;-82
2022/08/14 04:11:11;;;;;;;14.77;11.07;;;19.30;99.90;;;;;;5112184;28;20026;-82
2022/08/14 04:13:40;;;;;;;12.98;10.93;;;19.40;99.90;;;;;;5112438;28;20456;-81
2022/08/14 04:16:13;;;;;;;14.00;10.82;;;19.40;99.90;;;;;;5111801;28;20023;-83
2022/08/14 04:18:45;;;;;;;13.15;11.75;;;19.40;99.90;;;;;;5110618;28;20378;-81
2022/08/14 04:21:11;;;;;;;14.63;11.25;;;19.40;99.90;;;;;;5110213;28;20032;-81
2022/08/14 04:23:37;;;;;;;13.13;11.32;;;19.40;99.90;;;;;;5111634;28;20119;-81
2022/08/14 04:26:06;;;;;;;14.85;12.40;;;19.40;99.90;;;;;;5111824;28;20018;-81
2022/08/14 04:28:32;;;;;;;12.85;10.82;;;19.40;99.90;;;;;;5122340;28;20035;-81
2022/08/14 04:30:57;;;;;;;11.68;10.30;;;19.50;99.90;;;;;;5120187;28;20020;-81
2022/08/14 04:33:24;;;;;;;12.07;10.52;;;19.50;99.90;;;;;;5120941;28;20020;-82
2022/08/14 04:35:51;;;;;;;13.80;10.63;;;19.50;99.90;;;;;;5119308;28;20028;-83
2022/08/14 04:43:47;;;;;;;11.18;9.93;;;19.60;99.90;;;;;;5120473;28;20462;-81
2022/08/14 04:46:16;;;;;;;13.05;10.40;;;19.60;99.90;;;;;;5117339;28;20031;-81
2022/08/14 04:48:42;;;;;;;11.38;10.05;;;19.70;99.90;;;;;;5113456;28;20055;-82
2022/08/14 04:51:12;;;;;;;14.32;10.30;;;19.70;99.90;;;;;;5109606;28;20062;-82
2022/08/14 04:53:42;;;;;;;12.25;10.20;;;19.80;99.90;;;;;;5111230;28;20026;-81
2022/08/14 04:56:10;;;;;;;12.02;10.68;;;19.80;99.90;;;;;;5109376;28;20028;-82
2022/08/14 04:58:35;;;;;;;12.80;10.57;;;19.90;99.90;;;;;;5111270;28;20031;-81
2022/08/14 05:01:05;;;;;;;11.23;10.13;;;20.00;99.90;;;;;;5109142;28;20032;-82
2022/08/14 05:03:33;;;;;;;11.95;10.23;;;20.00;99.90;;;;;;5111539;28;20023;-82
2022/08/14 05:06:03;;;;;;;11.18;9.85;;;20.10;99.90;;;;;;5114121;28;20024;-81
2022/08/14 05:08:29;;;;;;;12.23;10.05;;;20.20;99.90;;;;;;5115395;28;20125;-81
2022/08/14 05:10:57;;;;;;;10.35;9.30;;;20.20;99.90;;;;;;5112968;28;20027;-83
2022/08/14 05:13:25;;;;;;;10.85;9.73;;;20.30;99.90;;;;;;5114981;28;20024;-82
2022/08/14 05:15:52;;;;;;;11.52;9.90;;;20.40;99.90;;;;;;5114503;28;20063;-81
2022/08/14 05:18:20;;;;;;;11.10;10.00;;;20.40;99.90;;;;;;5115204;28;20032;-82
2022/08/14 05:20:50;;;;;;;11.48;9.98;;;20.40;99.90;;;;;;5114126;28;20042;-82
2022/08/14 05:23:18;;;;;;;10.50;9.30;;;20.50;99.90;;;;;;5114854;28;20020;-82
2022/08/14 05:25:50;;;;;;;12.68;10.82;;;20.50;99.90;;;;;;5112914;28;20024;-81
2022/08/14 05:28:18;;;;;;;13.98;10.15;;;20.60;99.90;;;;;;5113443;28;20032;-82
2022/08/14 05:30:49;;;;;;;12.73;9.90;;;20.60;99.90;;;;;;5114226;27;20105;-83
2022/08/14 05:33:17;;;;;;;15.13;9.80;;;20.60;99.90;;;;;;5114905;28;20035;-81
2022/08/14 05:35:43;;;;;;;12.98;9.40;;;20.70;99.90;;;;;;5114380;28;20027;-82
2022/08/14 05:38:14;;;;;;;11.70;9.80;;;20.70;99.90;;;;;;5114857;28;20036;-82
2022/08/14 05:40:40;;;;;;;11.63;10.30;;;20.80;99.90;;;;;;5114599;28;20024;-81
2022/08/14 05:43:06;;;;;;;12.23;10.57;;;20.80;99.90;;;;;;5116486;28;20043;-82
2022/08/14 05:45:34;;;;;;;13.80;10.57;;;20.80;99.90;;;;;;5119903;28;20036;-81
2022/08/14 05:48:00;;;;;;;12.80;11.05;;;20.90;99.90;;;;;;5117211;28;20020;-81
2022/08/14 05:50:25;;;;;;;12.40;9.70;;;20.90;99.90;;;;;;5114003;28;20032;-82
2022/08/14 05:52:51;;;;;;;11.82;10.38;;;20.90;99.90;;;;;;5113704;28;20055;-81
2022/08/14 05:55:18;;;;;;;10.65;9.60;;;20.90;99.90;;;;;;5114250;28;20023;-82
2022/08/14 05:57:57;;;;;;;13.25;10.00;;;21.00;99.90;;;;;;5113791;27;20035;-83
2022/08/14 06:00:24;;;;;;;11.18;9.98;;;21.00;99.90;;;;;;5114546;28;20023;-82
2022/08/14 06:02:50;;;;;;;11.05;9.45;;;21.10;99.90;;;;;;5114099;28;20031;-83
2022/08/14 06:05:16;;;;;;;12.30;9.73;;;21.20;99.90;;;;;;5114032;28;20028;-83
2022/08/14 06:07:41;;;;;;;11.85;10.23;;;21.30;99.90;;;;;;5113411;28;20023;-83
2022/08/14 06:10:09;;;;;;;11.27;10.10;;;21.30;99.90;;;;;;5114239;28;20024;-81
2022/08/14 06:12:35;;;;;;;12.13;10.07;;;21.40;99.90;;;;;;5113435;28;20028;-81
2022/08/14 06:15:01;;;;;;;12.23;10.73;;;21.50;99.90;;;;;;5113660;28;20031;-82
2022/08/14 06:17:26;;;;;;;10.90;9.18;;;21.60;99.90;;;;;;5110859;28;20023;-83
2022/08/14 06:19:52;;;;;;;13.23;10.50;;;21.70;99.80;;;;;;5113654;28;20024;-82
2022/08/14 06:22:19;;;;;;;10.48;8.93;;;21.80;99.60;;;;;;5113171;28;20042;-81
2022/08/14 06:24:44;;;;;;;9.57;8.57;;;21.90;99.60;;;;;;5112939;28;20036;-83
2022/08/14 06:27:11;;;;;;;10.02;8.80;;;22.00;99.50;;;;;;5112485;28;20055;-82
2022/08/14 06:29:37;;;;;;;11.00;9.77;;;22.10;99.30;;;;;;5113000;28;20026;-83
2022/08/14 06:32:03;;;;;;;10.77;9.38;;;22.10;99.20;;;;;;5112523;28;20027;-81
2022/08/14 06:34:29;;;;;;;10.85;8.90;;;22.20;99.30;;;;;;5113075;28;20083;-82
2022/08/14 06:36:55;;;;;;;9.93;8.77;;;22.30;99.20;;;;;;5112554;28;20123;-79
2022/08/14 06:39:22;;;;;;;10.52;9.45;;;22.30;99.10;;;;;;5113436;28;20127;-80
2022/08/14 06:41:47;;;;;;;11.82;9.20;;;22.50;99.00;;;;;;5112963;28;20020;-82
2022/08/14 06:44:13;;;;;;;9.65;8.25;;;22.60;98.80;;;;;;5113791;28;20659;-82
2022/08/14 06:46:38;;;;;;;9.02;8.13;;;22.80;98.70;;;;;;5113755;28;20043;-82
2022/08/14 06:49:04;;;;;;;11.77;8.90;;;22.90;98.40;;;;;;5113974;28;20083;-82
2022/08/14 06:51:29;;;;;;;12.02;9.07;;;22.90;98.40;;;;;;5113769;28;20038;-82
2022/08/14 06:53:55;;;;;;;8.75;7.82;;;23.00;98.40;;;;;;5113125;28;20027;-82
2022/08/14 06:56:22;;;;;;;8.93;7.57;;;23.20;98.50;;;;;;5113397;27;20031;-81
2022/08/14 06:58:48;;;;;;;8.95;8.05;;;23.30;98.40;;;;;;5111338;28;20019;-83
2022/08/14 07:07:01;;;;;;;9.85;7.95;;;23.50;98.00;;;;;;5110113;28;20023;-82
2022/08/14 07:09:27;;;;;;;9.45;7.75;;;23.70;97.80;;;;;;5092616;28;20045;-81
2022/08/14 07:11:52;;;;;;;11.68;8.38;;;23.80;97.70;;;;;;5111079;27;20040;-83
2022/08/14 07:14:18;;;;;;;8.85;7.80;;;23.90;97.40;;;;;;5112837;28;20099;-82
2022/08/14 07:16:43;;;;;;;9.30;7.88;;;24.00;97.40;;;;;;5112466;28;20397;-82
2022/08/14 07:19:09;;;;;;;8.20;7.03;;;24.10;97.20;;;;;;5112712;28;20035;-82
2022/08/14 07:21:36;;;;;;;10.38;7.88;;;24.20;97.20;;;;;;5112443;28;20413;-83
2022/08/14 07:24:02;;;;;;;10.80;7.35;;;24.30;97.00;;;;;;5112890;28;20020;-83
2022/08/14 07:26:27;;;;;;;8.50;7.50;;;24.40;96.90;;;;;;5111918;27;20465;-82
2022/08/14 07:28:53;;;;;;;8.88;7.05;;;24.50;96.90;;;;;;5112461;28;20053;-83
2022/08/14 07:31:18;;;;;;;8.70;7.45;;;24.70;96.80;;;;;;5110932;28;20466;-84
2022/08/14 07:33:47;;;;;;;10.40;7.93;;;24.80;96.50;;;;;;5112560;28;20085;-85
2022/08/14 07:36:14;;;;;;;7.93;7.13;;;24.90;96.50;;;;;;5111819;28;20055;-83
2022/08/14 07:38:40;;;;;;;8.85;7.80;;;25.00;96.10;;;;;;5110613;28;20093;-85
2022/08/14 07:41:08;;;;;;;8.07;7.28;;;25.10;96.00;;;;;;5110530;28;20537;-83
2022/08/14 07:43:34;;;;;;;9.02;7.03;;;25.20;95.80;;;;;;5116667;28;20031;-81
2022/08/14 07:46:01;;;;;;;7.13;6.43;;;25.30;95.60;;;;;;5110781;28;20051;-84
2022/08/14 07:48:27;;;;;;;7.25;6.55;;;25.50;95.50;;;;;;5113888;28;20120;-85
2022/08/14 07:50:53;;;;;;;8.32;6.18;;;25.60;95.40;;;;;;5115612;28;20466;-83
2022/08/14 07:53:20;;;;;;;8.20;6.32;;;25.70;95.10;;;;;;5117408;28;20058;-83
2022/08/14 07:55:46;;;;;;;9.45;6.68;;;25.90;94.70;;;;;;5115398;28;20804;-84
2022/08/14 07:58:12;;;;;;;7.18;6.47;;;26.00;94.70;;;;;;5113890;28;20066;-82
2022/08/14 08:00:38;;;;;;;8.07;6.70;;;26.20;94.40;;;;;;5115243;28;20012;-83
2022/08/14 08:03:08;;;;;;;6.45;5.65;;;26.40;94.10;;;;;;5118194;28;20359;-82
2022/08/14 08:05:35;;;;;;;8.02;5.80;;;26.40;94.10;;;;;;5117028;28;20033;-85
2022/08/14 08:08:02;;;;;;;6.75;6.07;;;26.50;94.00;;;;;;5118618;28;20035;-83
2022/08/14 08:10:31;;;;;;;9.23;5.63;;;26.60;93.90;;;;;;5119854;28;20427;-84
2022/08/14 08:13:09;;;;;;;7.00;6.13;;;26.70;93.40;;;;;;5118407;28;20031;-84
2022/08/14 08:15:39;;;;;;;8.38;5.70;;;26.80;93.20;;;;;;5116624;28;20020;-83
2022/08/14 08:18:07;;;;;;;8.93;5.75;;;26.90;92.90;;;;;;5117088;28;20023;-84
2022/08/14 08:20:37;;;;;;;6.82;5.60;;;26.90;93.00;;;;;;5116390;28;20023;-84
2022/08/14 08:23:04;;;;;;;9.75;6.28;;;27.00;93.40;;;;;;5115361;28;20481;-83
2022/08/14 08:25:33;;;;;;;8.73;6.35;;;27.10;92.90;;;;;;5117598;28;20039;-83
2022/08/14 08:28:07;;;;;;;7.20;5.43;;;27.20;92.50;;;;;;5116202;28;20023;-84
2022/08/14 08:30:33;;;;;;;9.00;6.00;;;27.30;92.80;;;;;;5113583;28;20016;-84
2022/08/14 08:33:00;;;;;;;9.38;5.55;;;27.40;92.70;;;;;;5112295;28;20031;-83
2022/08/14 08:35:29;;;;;;;6.28;5.68;;;27.50;92.80;;;;;;5112820;28;20034;-83
2022/08/14 08:38:06;;;;;;;6.30;5.70;;;27.70;91.80;;;;;;5113351;28;20606;-82
2022/08/14 08:40:38;;;;;;;6.03;5.22;;;27.70;91.40;;;;;;5113093;28;20023;-82
2022/08/14 08:43:21;;;;;;;8.98;5.72;;;27.80;91.90;;;;;;5111546;28;20063;-85
2022/08/14 08:46:11;;;;;;;6.97;5.60;;;27.90;91.00;;;;;;5111068;28;20065;-83
2022/08/14 08:48:44;;;;;;;6.80;5.85;;;27.90;90.50;;;;;;5110365;28;20458;-83
2022/08/14 08:51:21;;;;;;;7.72;5.68;;;27.90;90.50;;;;;;5110897;28;20176;-84
2022/08/14 08:53:59;;;;;;;6.85;5.82;;;28.00;91.20;;;;;;5112260;28;20038;-84
2022/08/14 08:56:53;;;;;;;6.70;5.45;;;28.20;91.20;;;;;;5112541;28;20027;-84
2022/08/14 08:59:24;;;;;;;5.85;5.35;;;28.30;90.90;;;;;;5100452;28;20047;-83
2022/08/14 09:01:59;;;;;;;5.82;5.25;;;28.40;90.50;;;;;;5114122;28;20370;-84
2022/08/14 09:04:32;;;;;;;6.93;6.07;;;28.40;89.60;;;;;;5120720;28;20024;-83
2022/08/14 09:06:58;;;;;;;6.28;5.68;;;28.50;89.50;;;;;;5119018;28;20023;-85
2022/08/14 09:09:27;;;;;;;7.40;5.78;;;28.50;89.60;;;;;;5111023;28;20096;-85
2022/08/14 09:11:54;;;;;;;7.10;5.50;;;28.60;90.10;;;;;;5109471;28;20024;-86
2022/08/14 09:14:24;;;;;;;6.03;5.43;;;28.70;89.80;;;;;;5111327;28;20115;-84
2022/08/14 09:16:50;;;;;;;6.82;6.10;;;28.80;88.20;;;;;;5110647;28;20062;-85
2022/08/14 09:19:16;;;;;;;5.47;4.88;;;29.00;88.80;;;;;;5109989;28;20028;-85
2022/08/14 09:21:42;;;;;;;5.53;4.70;;;29.00;88.60;;;;;;5110856;28;20040;-85
2022/08/14 09:24:08;;;;;;;5.72;5.20;;;29.10;86.90;;;;;;5111287;28;20027;-86
2022/08/14 09:26:35;;;;;;;10.23;5.07;;;29.20;88.50;;;;;;5109646;28;20020;-87
2022/08/14 09:29:05;;;;;;;6.55;5.85;;;29.40;87.80;;;;;;5109977;28;20034;-86
2022/08/14 09:31:33;;;;;;;5.43;4.60;;;29.40;86.80;;;;;;5110763;28;20020;-86
2022/08/14 09:34:32;;;;;;;7.05;5.45;;;29.60;86.10;;;;;;5111142;28;20024;-86
2022/08/14 09:37:22;;;;;;;7.43;5.55;;;29.40;84.90;;;;;;5110372;28;20666;-87
2022/08/14 09:40:15;;;;;;;6.78;5.25;;;29.40;85.30;;;;;;5111012;28;20466;-88
2022/08/14 09:42:54;;;;;;;6.18;5.45;;;29.40;85.30;;;;;;5110754;28;20031;-87
2022/08/14 09:45:46;;;;;;;7.40;5.05;;;29.50;85.00;;;;;;5110692;28;20036;-86
2022/08/14 09:48:16;;;;;;;5.18;4.68;;;29.80;85.40;;;;;;5109561;28;20024;-85
2022/08/14 09:50:53;;;;;;;10.43;4.75;;;30.00;86.10;;;;;;5110863;28;20031;-85
2022/08/14 09:53:34;;;;;;;7.25;4.90;;;30.00;83.70;;;;;;5114501;28;20034;-86
2022/08/14 09:56:00;;;;;;;7.63;5.50;;;30.00;84.10;;;;;;5113828;28;20541;-85
2022/08/14 09:58:45;;;;;;;5.78;4.45;;;30.10;82.50;;;;;;5114476;28;20015;-85
2022/08/14 10:01:13;;;;;;;5.63;4.47;;;30.20;82.50;;;;;;5114578;28;20034;-85
2022/08/14 10:03:49;;;;;;;5.28;4.40;;;30.50;82.40;;;;;;5113925;28;20081;-86
2022/08/14 10:06:19;;;;;;;6.95;5.40;;;30.70;82.00;;;;;;5119321;27;20601;-85
2022/08/14 10:08:52;;;;;;;6.07;5.20;;;30.90;82.30;;;;;;5121707;28;20727;-83
2022/08/14 10:11:21;;;;;;;7.07;4.78;;;31.10;80.90;;;;;;5117912;28;20058;-87
2022/08/14 10:13:51;;;;;;;5.47;4.53;;;31.10;81.10;;;;;;5105957;28;20032;-85
2022/08/14 10:16:17;;;;;;;4.35;3.95;;;31.20;79.40;;;;;;5100391;28;20031;-83
2022/08/14 10:18:43;;;;;;;7.05;4.35;;;31.30;78.90;;;;;;5100398;28;20036;-85
2022/08/14 10:21:15;;;;;;;4.68;4.10;;;31.40;76.60;;;;;;5100639;28;20028;-86
2022/08/14 10:23:43;;;;;;;5.72;4.30;;;31.60;79.80;;;;;;5100620;28;20028;-84
2022/08/14 10:26:09;;;;;;;6.82;4.35;;;31.70;76.10;;;;;;5099080;28;20163;-84
2022/08/14 10:28:41;;;;;;;10.02;4.47;;;31.90;77.60;;;;;;5100676;28;20924;-84
2022/08/14 10:31:17;;;;;;;;;;;32.10;77.10;;;;;;5100647;28;20043;-86
2022/08/14 10:33:45;;;;;;;4.07;3.78;;;32.20;72.50;;;;;;5099658;28;20286;-85
2022/08/14 10:36:10;;;;;;;4.75;4.30;;;32.30;75.00;;;;;;5101027;28;20039;-85
2022/08/14 10:38:36;;;;;;;5.05;4.47;;;32.40;71.60;;;;;;5100106;28;20040;-89
2022/08/14 10:41:16;;;;;;;7.20;3.97;;;32.50;71.60;;;;;;5092581;28;20028;-86
2022/08/14 10:43:44;;;;;;;4.47;3.85;;;32.50;70.10;;;;;;5091990;28;20028;-85
2022/08/14 10:46:15;;;;;;;4.20;3.80;;;32.60;74.00;;;;;;5093382;28;20020;-85
2022/08/14 10:48:54;;;;;;;5.77;4.43;;;32.60;69.70;;;;;;5093717;28;20020;-85
2022/08/14 10:51:26;;;;;;;4.95;4.25;;;32.60;72.80;;;;;;5093754;28;20066;-86
2022/08/14 10:53:57;;;;;;;4.40;4.00;;;32.70;70.00;;;;;;5093677;28;20039;-84
2022/08/14 10:56:32;;;;;;;5.13;4.10;;;32.80;73.00;;;;;;5093079;28;20024;-87
2022/08/14 10:59:06;;;;;;;4.93;4.22;;;32.90;70.90;;;;;;5092886;28;20016;-89
2022/08/14 11:01:34;;;;;;;10.15;4.35;;;32.90;69.00;;;;;;5093040;28;20103;-89
2022/08/14 11:04:00;;;;;;;4.43;4.03;;;33.10;69.00;;;;;;5093324;28;20025;-87
2022/08/14 11:06:26;;;;;;;5.72;4.45;;;32.90;67.20;;;;;;5093625;28;20052;-87
2022/08/14 11:08:52;;;;;;;3.95;3.63;;;32.90;68.70;;;;;;5108954;28;20074;-87
2022/08/14 11:11:18;;;;;;;5.18;3.83;;;33.00;68.30;;;;;;5092611;28;20048;-86
2022/08/14 11:13:45;;;;;;;5.53;3.78;;;33.10;66.50;;;;;;5092952;28;20024;-86
2022/08/14 11:16:13;;;;;;;6.68;3.70;;;33.20;68.30;;;;;;5092442;28;20073;-86
2022/08/14 11:18:43;;;;;;;4.55;4.00;;;33.40;65.60;;;;;;5092605;28;20016;-84
2022/08/14 11:21:14;;;;;;;4.15;3.70;;;33.50;65.10;;;;;;5092205;28;20032;-85
2022/08/14 11:23:40;;;;;;;4.37;3.97;;;33.60;64.70;;;;;;5091089;28;20032;-86
2022/08/14 11:26:07;;;;;;;4.00;3.63;;;33.60;65.20;;;;;;5091678;28;20035;-84
2022/08/14 11:28:37;;;;;;;3.97;3.47;;;33.60;62.70;;;;;;5091803;28;20020;-87
2022/08/14 11:31:04;;;;;;;7.63;3.38;;;33.70;62.70;;;;;;5092235;28;20039;-85
2022/08/14 11:33:31;;;;;;;5.15;3.55;;;33.80;64.00;;;;;;5092598;28;20173;-85
2022/08/14 11:36:00;;;;;;;4.05;3.33;;;33.90;62.70;;;;;;5090362;28;20035;-85
2022/08/14 11:38:27;;;;;;;6.13;3.55;;;33.90;62.10;;;;;;5092124;28;20370;-87
2022/08/14 11:40:56;;;;;;;4.22;3.72;;;33.90;62.60;;;;;;5090053;28;20034;-85
2022/08/14 11:43:24;;;;;;;5.10;3.65;;;33.90;62.30;;;;;;5091982;28;20435;-85
2022/08/14 11:45:50;;;;;;;8.95;3.47;;;33.90;61.20;;;;;;5091831;28;20032;-86
2022/08/14 11:48:21;;;;;;;5.25;3.65;;;33.90;60.20;;;;;;5091883;28;20028;-85
2022/08/14 11:50:48;;;;;;;4.85;3.70;;;34.10;60.50;;;;;;5091394;28;20062;-85
2022/08/14 11:53:25;;;;;;;4.85;3.15;;;34.30;61.90;;;;;;5091511;28;20024;-85
2022/08/14 11:55:56;;;;;;;8.90;3.75;;;34.50;61.80;;;;;;5090915;28;20451;-84
2022/08/14 11:58:26;;;;;;;6.68;4.55;;;34.60;59.60;;;;;;5091653;28;20046;-86
2022/08/14 12:00:58;;;;;;;3.63;3.33;;;34.50;57.30;;;;;;5090830;28;20044;-85
2022/08/14 12:03:36;;;;;;;3.78;3.30;;;34.50;58.30;;;;;;5091483;28;20537;-86
2022/08/14 12:06:10;;;;;;;9.00;3.97;;;34.60;58.90;;;;;;5091121;28;20028;-86
2022/08/14 12:08:37;;;;;;;4.57;3.25;;;34.50;59.80;;;;;;5091787;28;20541;-84
2022/08/14 12:11:04;;;;;;;6.72;3.80;;;34.50;58.50;;;;;;5091251;28;20028;-84
2022/08/14 12:13:34;;;;;;;3.38;3.08;;;34.50;60.20;;;;;;5091075;28;20035;-85
2022/08/14 12:16:07;;;;;;;4.55;3.50;;;34.30;58.60;;;;;;5091397;28;20028;-85
2022/08/14 12:18:47;;;;;;;5.55;3.03;;;34.20;59.20;;;;;;5092936;28;20024;-85
2022/08/14 12:21:19;;;;;;;7.38;3.65;;;34.10;58.90;;;;;;5104018;28;20449;-86
2022/08/14 12:23:47;;;;;;;3.88;3.40;;;34.10;61.30;;;;;;5097599;28;20151;-85
2022/08/14 12:26:19;;;;;;;6.45;3.33;;;34.00;58.20;;;;;;5090660;28;20038;-87
2022/08/14 12:28:47;;;;;;;6.72;3.50;;;34.10;59.00;;;;;;5092139;28;20024;-87
2022/08/14 12:31:16;;;;;;;4.05;3.13;;;34.30;60.40;;;;;;5089704;28;20032;-84
2022/08/14 12:33:42;;;;;;;5.50;3.85;;;34.40;57.90;;;;;;5089672;28;20027;-84
2022/08/14 12:36:21;;;;;;;3.85;3.03;;;34.40;58.90;;;;;;5090779;28;20110;-85
2022/08/14 12:38:50;;;;;;;4.40;3.65;;;34.60;61.20;;;;;;5090903;28;20032;-88
2022/08/14 12:41:20;;;;;;;4.07;3.30;;;34.70;58.10;;;;;;5090288;28;20020;-87
2022/08/14 12:43:52;;;;;;;7.10;3.58;;;34.90;58.10;;;;;;5090625;28;20028;-88
2022/08/14 12:46:29;;;;;;;3.22;2.92;;;35.00;55.00;;;;;;5090582;28;20028;-85
2022/08/14 12:48:57;;;;;;;3.78;3.42;;;35.10;57.10;;;;;;5090788;28;20012;-88
2022/08/14 12:51:24;;;;;;;4.03;3.65;;;35.20;55.30;;;;;;5090930;28;20095;-85
2022/08/14 12:53:55;;;;;;;5.75;3.35;;;35.40;56.40;;;;;;5089436;28;20469;-86
2022/08/14 12:56:24;;;;;;;3.85;3.20;;;35.60;55.40;;;;;;5090236;28;20024;-86
2022/08/14 12:58:55;;;;;;;5.38;3.40;;;35.50;55.80;;;;;;5090636;28;20032;-84